Time;durP1;ratioP1;P1;durP2;ratioP2;P2;SDS_P1;SDS_P2;PMS_P1;PMS_P2;Temp;Humidity;BMP_temperature;BMP_pressure;BME280_temperature;BME280_humidity;BME280_pressure;Samples;Min_cycle;Max_cycle;Signal;HPM_P1;HPM_P2
2021/11/04 00:00:49;;;;;;;3.20;2.58;;;;;;;;;;5031457;28;20108;-60
2021/11/04 00:03:16;;;;;;;1.45;1.00;;;;;;;;;;5029528;28;20034;-61
2021/11/04 00:05:42;;;;;;;1.05;0.93;;;;;;;;;;5030038;28;20077;-59
2021/11/04 00:08:09;;;;;;;0.88;0.88;;;;;;;;;;5030224;28;20041;-60
2021/11/04 00:10:36;;;;;;;0.80;0.80;;;;;;;;;;5028019;28;20436;-59
2021/11/04 00:13:03;;;;;;;0.80;0.80;;;;;;;;;;5030789;28;20128;-59
2021/11/04 00:15:30;;;;;;;1.20;1.20;;;;;;;;;;5032360;28;20087;-58
2021/11/04 00:17:59;;;;;;;1.65;1.55;;;;;;;;;;5031010;28;20045;-58
2021/11/04 00:20:26;;;;;;;2.45;2.33;;;;;;;;;;5025835;28;20033;-58
2021/11/04 00:22:53;;;;;;;3.08;3.08;;;;;;;;;;5032277;28;20428;-58
2021/11/04 00:25:20;;;;;;;4.10;3.90;;;;;;;;;;5034643;28;20462;-58
2021/11/04 00:27:47;;;;;;;3.33;3.33;;;;;;;;;;5030778;28;20041;-59
2021/11/04 00:30:15;;;;;;;4.65;4.55;;;;;;;;;;5026821;28;20096;-58
2021/11/04 00:32:47;;;;;;;4.60;4.50;;;;;;;;;;5040475;28;20037;-61
2021/11/04 00:35:14;;;;;;;3.92;3.92;;;;;;;;;;5028980;28;20042;-60
2021/11/04 00:37:41;;;;;;;6.63;6.63;;;;;;;;;;5018870;28;20049;-59
2021/11/04 00:40:08;;;;;;;7.22;7.13;;;;;;;;;;5031248;28;20045;-59
2021/11/04 00:42:35;;;;;;;7.32;7.22;;;;;;;;;;5028693;28;20115;-59
2021/11/04 00:45:02;;;;;;;4.97;4.97;;;;;;;;;;5020415;28;20049;-59
2021/11/04 00:47:29;;;;;;;4.43;4.43;;;;;;;;;;5025223;28;20084;-59
2021/11/04 00:49:56;;;;;;;4.25;4.20;;;;;;;;;;5032012;28;20045;-59
2021/11/04 00:52:22;;;;;;;5.47;5.47;;;;;;;;;;5028301;28;20029;-59
2021/11/04 00:54:49;;;;;;;3.50;3.50;;;;;;;;;;5045518;28;20041;-59
2021/11/04 00:57:16;;;;;;;5.97;3.30;;;;;;;;;;5032316;28;20046;-59
2021/11/04 00:59:43;;;;;;;2.10;2.10;;;;;;;;;;5025625;28;20045;-58
2021/11/04 01:02:09;;;;;;;3.65;3.65;;;;;;;;;;5031932;28;20124;-58
2021/11/04 01:04:36;;;;;;;5.43;5.43;;;;;;;;;;5027553;28;20358;-58
2021/11/04 01:07:03;;;;;;;7.13;6.97;;;;;;;;;;5044634;28;20037;-58
2021/11/04 01:09:30;;;;;;;7.13;7.13;;;;;;;;;;5032704;28;20045;-58
2021/11/04 01:11:56;;;;;;;6.95;6.65;;;;;;;;;;5037420;28;20029;-58
2021/11/04 01:14:23;;;;;;;7.40;7.30;;;;;;;;;;5021476;28;20030;-58
2021/11/04 01:16:50;;;;;;;6.90;6.80;;;;;;;;;;5025219;28;20497;-57
2021/11/04 01:19:17;;;;;;;6.95;6.85;;;;;;;;;;5030061;28;20132;-57
2021/11/04 01:21:43;;;;;;;7.63;7.63;;;;;;;;;;5030340;28;20095;-58
2021/11/04 01:24:10;;;;;;;5.40;5.40;;;;;;;;;;5026484;28;20051;-57
2021/11/04 01:26:37;;;;;;;8.80;8.70;;;;;;;;;;5026719;28;20041;-58
2021/11/04 01:29:04;;;;;;;10.60;10.45;;;;;;;;;;5023900;28;20064;-58
2021/11/04 01:31:30;;;;;;;10.57;10.48;;;;;;;;;;5030312;28;20092;-56
2021/11/04 01:33:57;;;;;;;9.80;9.70;;;;;;;;;;5027431;28;20037;-58
2021/11/04 01:36:24;;;;;;;9.32;9.13;;;;;;;;;;5025230;28;20450;-58
2021/11/04 01:38:51;;;;;;;11.75;11.65;;;;;;;;;;5028388;28;20068;-58
2021/11/04 01:41:17;;;;;;;11.23;11.13;;;;;;;;;;5030305;28;20413;-58
2021/11/04 01:43:44;;;;;;;12.82;12.73;;;;;;;;;;5020448;28;20058;-57
2021/11/04 01:46:12;;;;;;;11.75;11.65;;;;;;;;;;5028795;28;20057;-58
2021/11/04 01:48:39;;;;;;;13.57;13.48;;;;;;;;;;5029090;28;20461;-58
2021/11/04 01:51:07;;;;;;;14.50;14.05;;;;;;;;;;5031313;28;20045;-58
2021/11/04 01:53:33;;;;;;;12.40;12.20;;;;;;;;;;5022618;28;20038;-58
2021/11/04 01:56:00;;;;;;;16.02;15.55;;;;;;;;;;5018932;28;20088;-57
2021/11/04 01:58:26;;;;;;;15.98;15.77;;;;;;;;;;5024550;28;20042;-57
2021/11/04 02:00:54;;;;;;;13.07;12.88;;;;;;;;;;5032468;28;20061;-57
2021/11/04 02:03:20;;;;;;;16.45;15.82;;;;;;;;;;5029856;28;20033;-58
2021/11/04 02:05:50;;;;;;;14.00;13.75;;;;;;;;;;5033581;28;20029;-57
2021/11/04 02:08:24;;;;;;;13.52;13.23;;;;;;;;;;5031799;28;20405;-58
2021/11/04 02:11:05;;;;;;;13.68;13.57;;;;;;;;;;5033915;28;20042;-57
2021/11/04 02:13:39;;;;;;;14.10;13.90;;;;;;;;;;5016368;28;20441;-57
2021/11/04 02:16:06;;;;;;;13.93;13.73;;;;;;;;;;5028565;28;20100;-57
2021/11/04 02:18:34;;;;;;;12.13;11.90;;;;;;;;;;5028196;28;20121;-57
2021/11/04 02:21:01;;;;;;;12.80;12.48;;;;;;;;;;5032128;28;20037;-57
2021/11/04 02:23:38;;;;;;;13.35;12.98;;;;;;;;;;5030393;28;20083;-57
2021/11/04 02:26:06;;;;;;;13.30;12.90;;;;;;;;;;5039933;28;20041;-57
2021/11/04 02:28:34;;;;;;;13.15;12.95;;;;;;;;;;5028243;28;20034;-57
2021/11/04 02:31:02;;;;;;;12.27;11.98;;;;;;;;;;5029386;28;20077;-56
2021/11/04 02:33:29;;;;;;;12.77;12.43;;;;;;;;;;5031418;28;20037;-57
2021/11/04 02:35:58;;;;;;;13.88;13.63;;;;;;;;;;5027745;28;20050;-57
2021/11/04 02:38:28;;;;;;;13.43;13.32;;;;;;;;;;5036570;28;20469;-57
2021/11/04 02:40:55;;;;;;;13.40;13.00;;;;;;;;;;5028849;28;20029;-57
2021/11/04 02:43:22;;;;;;;12.60;12.40;;;;;;;;;;5029132;28;20418;-57
2021/11/04 02:45:49;;;;;;;11.75;11.45;;;;;;;;;;5028812;28;20493;-57
2021/11/04 02:48:17;;;;;;;12.88;12.77;;;;;;;;;;5029513;28;20049;-56
2021/11/04 02:50:48;;;;;;;11.70;11.52;;;;;;;;;;5015902;28;20108;-56
2021/11/04 02:53:15;;;;;;;15.27;15.07;;;;;;;;;;5026238;28;20370;-56
2021/11/04 02:55:42;;;;;;;15.20;14.98;;;;;;;;;;5026818;28;20038;-56
2021/11/04 02:58:10;;;;;;;12.48;12.27;;;;;;;;;;5030443;28;20046;-57
2021/11/04 03:00:39;;;;;;;12.85;12.75;;;;;;;;;;5027826;28;20535;-56
2021/11/04 03:03:06;;;;;;;14.43;14.23;;;;;;;;;;5030401;28;20084;-56
2021/11/04 03:05:33;;;;;;;14.73;14.45;;;;;;;;;;5027401;28;20049;-56
2021/11/04 03:07:59;;;;;;;13.52;13.23;;;;;;;;;;5031510;28;20049;-56
2021/11/04 03:10:26;;;;;;;11.45;11.13;;;;;;;;;;5029557;28;20099;-57
2021/11/04 03:12:53;;;;;;;10.38;10.27;;;;;;;;;;5029264;28;20125;-56
2021/11/04 03:15:21;;;;;;;12.98;12.77;;;;;;;;;;5025460;28;20505;-56
2021/11/04 03:17:49;;;;;;;13.60;13.23;;;;;;;;;;5027478;28;20056;-56
2021/11/04 03:20:17;;;;;;;12.80;12.60;;;;;;;;;;5028327;28;20041;-56
2021/11/04 03:22:45;;;;;;;10.82;10.50;;;;;;;;;;5027455;28;20045;-56
2021/11/04 03:25:17;;;;;;;11.20;10.80;;;;;;;;;;5027186;28;20116;-57
2021/11/04 03:27:46;;;;;;;10.82;10.07;;;;;;;;;;5027320;28;20034;-57
2021/11/04 03:30:14;;;;;;;11.57;11.15;;;;;;;;;;5024093;28;20093;-54
2021/11/04 03:32:41;;;;;;;6.88;6.78;;;;;;;;;;5018795;28;20049;-58
2021/11/04 03:35:09;;;;;;;5.43;5.13;;;;;;;;;;5031326;28;20496;-57
2021/11/04 03:37:38;;;;;;;4.65;4.22;;;;;;;;;;5031886;28;20049;-57
2021/11/04 03:40:06;;;;;;;2.58;2.38;;;;;;;;;;5032134;28;20083;-57
2021/11/04 03:42:33;;;;;;;2.78;2.67;;;;;;;;;;5031781;28;20071;-56
2021/11/04 03:45:01;;;;;;;1.98;1.98;;;;;;;;;;5033173;28;20041;-57
2021/11/04 03:47:29;;;;;;;3.85;2.67;;;;;;;;;;5029702;28;20068;-57
2021/11/04 03:49:56;;;;;;;2.53;1.35;;;;;;;;;;5032026;28;20041;-57
2021/11/04 03:52:23;;;;;;;3.08;2.80;;;;;;;;;;5031975;28;20041;-57
2021/11/04 03:54:50;;;;;;;4.47;4.18;;;;;;;;;;5031179;28;20048;-57
2021/11/04 03:57:18;;;;;;;6.13;6.03;;;;;;;;;;5033379;28;20041;-57
2021/11/04 03:59:45;;;;;;;10.00;9.85;;;;;;;;;;5031525;28;20034;-56
2021/11/04 04:02:12;;;;;;;12.25;11.80;;;;;;;;;;5031671;28;20034;-57
2021/11/04 04:04:39;;;;;;;10.93;10.27;;;;;;;;;;5036347;28;20040;-56
2021/11/04 04:07:06;;;;;;;11.90;11.30;;;;;;;;;;5029691;28;20045;-56
2021/11/04 04:09:32;;;;;;;13.05;12.65;;;;;;;;;;5027105;28;20478;-57
2021/11/04 04:11:59;;;;;;;11.30;10.63;;;;;;;;;;5027950;28;20049;-56
2021/11/04 04:14:26;;;;;;;12.25;12.05;;;;;;;;;;5038297;28;20030;-56
2021/11/04 04:16:53;;;;;;;11.77;11.25;;;;;;;;;;5026618;28;20046;-57
2021/11/04 04:19:20;;;;;;;13.75;13.02;;;;;;;;;;5029756;28;20045;-56
2021/11/04 04:21:46;;;;;;;12.85;12.50;;;;;;;;;;5032329;28;20041;-57
2021/11/04 04:24:13;;;;;;;11.43;11.23;;;;;;;;;;5030757;28;20095;-55
2021/11/04 04:26:40;;;;;;;12.90;12.50;;;;;;;;;;5032370;28;20109;-57
2021/11/04 04:29:06;;;;;;;10.65;10.27;;;;;;;;;;5030587;28;20037;-56
2021/11/04 04:31:33;;;;;;;11.70;11.18;;;;;;;;;;5029097;28;20079;-56
2021/11/04 04:34:00;;;;;;;12.82;12.63;;;;;;;;;;5033113;28;20092;-56
2021/11/04 04:36:27;;;;;;;12.35;11.90;;;;;;;;;;5026542;28;20367;-56
2021/11/04 04:38:54;;;;;;;11.73;11.45;;;;;;;;;;5026648;28;20092;-57
2021/11/04 04:41:21;;;;;;;10.45;10.23;;;;;;;;;;5030883;28;20091;-55
2021/11/04 04:43:48;;;;;;;13.55;13.18;;;;;;;;;;5031702;28;20093;-56
2021/11/04 04:46:15;;;;;;;10.77;10.48;;;;;;;;;;5031110;28;20076;-57
2021/11/04 04:48:41;;;;;;;13.55;13.30;;;;;;;;;;5027806;28;20065;-57
2021/11/04 04:51:08;;;;;;;12.70;12.50;;;;;;;;;;5027620;28;20046;-57
2021/11/04 04:53:35;;;;;;;11.60;11.40;;;;;;;;;;5029176;28;20370;-57
2021/11/04 04:56:01;;;;;;;14.95;14.38;;;;;;;;;;5036640;28;20049;-57
2021/11/04 04:58:28;;;;;;;14.75;14.55;;;;;;;;;;5032555;28;20040;-55
2021/11/04 05:00:55;;;;;;;14.02;13.48;;;;;;;;;;5039305;28;20134;-57
2021/11/04 05:03:22;;;;;;;15.38;14.60;;;;;;;;;;5030611;28;20042;-57
2021/11/04 05:05:48;;;;;;;12.80;12.27;;;;;;;;;;5028719;28;20087;-56
2021/11/04 05:08:15;;;;;;;12.90;12.15;;;;;;;;;;5033481;28;20033;-57
2021/11/04 05:10:42;;;;;;;14.25;13.85;;;;;;;;;;5030423;28;20042;-57
2021/11/04 05:13:09;;;;;;;14.45;13.63;;;;;;;;;;5031359;28;20044;-57
2021/11/04 05:15:35;;;;;;;12.65;12.45;;;;;;;;;;5032414;28;20060;-56
2021/11/04 05:18:04;;;;;;;13.60;13.32;;;;;;;;;;5029421;28;20029;-57
2021/11/04 05:20:31;;;;;;;11.32;11.23;;;;;;;;;;5031103;28;20447;-57
2021/11/04 05:22:58;;;;;;;17.25;16.42;;;;;;;;;;5029937;28;20046;-57
2021/11/04 05:25:24;;;;;;;15.85;15.20;;;;;;;;;;5014383;28;20073;-57
2021/11/04 05:27:51;;;;;;;13.95;13.65;;;;;;;;;;5031356;28;20033;-57
2021/11/04 05:30:18;;;;;;;13.57;13.27;;;;;;;;;;5029680;28;20065;-57
2021/11/04 05:32:46;;;;;;;15.95;15.45;;;;;;;;;;5031006;28;20101;-57
2021/11/04 05:35:14;;;;;;;15.40;14.57;;;;;;;;;;5028509;28;20492;-57
2021/11/04 05:37:41;;;;;;;12.95;12.65;;;;;;;;;;5013949;28;20096;-57
2021/11/04 05:40:10;;;;;;;14.23;13.27;;;;;;;;;;5029509;28;20501;-57
2021/11/04 05:42:36;;;;;;;13.07;12.80;;;;;;;;;;5026127;28;20053;-57
2021/11/04 05:45:04;;;;;;;14.43;13.27;;;;;;;;;;5024921;28;20041;-57
2021/11/04 05:47:30;;;;;;;13.52;13.13;;;;;;;;;;5024013;28;20037;-56
2021/11/04 05:49:57;;;;;;;13.52;13.13;;;;;;;;;;5013289;28;20038;-57
2021/11/04 05:52:24;;;;;;;14.65;14.25;;;;;;;;;;5027260;28;20120;-56
2021/11/04 05:54:54;;;;;;;15.85;15.20;;;;;;;;;;5027906;28;20474;-57
2021/11/04 05:57:21;;;;;;;13.93;13.45;;;;;;;;;;5029364;28;20037;-57
2021/11/04 05:59:48;;;;;;;20.08;19.02;;;;;;;;;;5022561;28;20068;-57
2021/11/04 06:02:14;;;;;;;16.42;15.90;;;;;;;;;;5029469;28;20044;-57
2021/11/04 06:04:45;;;;;;;14.75;14.25;;;;;;;;;;5027873;28;20048;-57
2021/11/04 06:07:13;;;;;;;14.48;14.10;;;;;;;;;;5029560;28;20107;-57
2021/11/04 06:09:40;;;;;;;13.52;13.32;;;;;;;;;;5020790;28;20092;-57
2021/11/04 06:12:08;;;;;;;13.63;13.15;;;;;;;;;;5021861;28;20067;-57
2021/11/04 06:14:35;;;;;;;13.65;13.45;;;;;;;;;;5018125;28;20050;-57
2021/11/04 06:17:02;;;;;;;14.73;14.52;;;;;;;;;;5024257;28;20037;-57
2021/11/04 06:19:28;;;;;;;14.60;14.35;;;;;;;;;;5029872;28;20041;-57
2021/11/04 06:21:55;;;;;;;12.63;12.30;;;;;;;;;;5030403;28;20121;-55
2021/11/04 06:24:22;;;;;;;15.40;14.88;;;;;;;;;;5026366;28;20041;-56
2021/11/04 06:26:49;;;;;;;18.38;17.23;;;;;;;;;;5022134;28;20092;-56
2021/11/04 06:29:15;;;;;;;12.40;12.00;;;;;;;;;;5023417;28;20045;-56
2021/11/04 06:31:42;;;;;;;12.10;11.85;;;;;;;;;;5030816;28;20092;-56
2021/11/04 06:34:09;;;;;;;15.15;14.68;;;;;;;;;;5028839;28;20432;-56
2021/11/04 06:36:36;;;;;;;11.23;10.88;;;;;;;;;;5025051;28;20076;-55
2021/11/04 06:39:03;;;;;;;10.95;10.20;;;;;;;;;;5025600;28;20107;-56
2021/11/04 06:41:30;;;;;;;13.60;13.10;;;;;;;;;;5026295;28;20599;-55
2021/11/04 06:43:56;;;;;;;11.00;10.38;;;;;;;;;;5013378;28;20109;-56
2021/11/04 06:46:24;;;;;;;7.82;7.72;;;;;;;;;;5025711;28;20095;-56
2021/11/04 06:49:01;;;;;;;6.78;6.53;;;;;;;;;;5014962;28;20504;-56
2021/11/04 06:51:29;;;;;;;4.80;4.60;;;;;;;;;;5029091;28;20088;-56
2021/11/04 06:53:58;;;;;;;4.65;4.25;;;;;;;;;;5023621;28;20539;-56
2021/11/04 06:56:25;;;;;;;2.00;1.92;;;;;;;;;;5013587;28;20116;-56
2021/11/04 06:58:52;;;;;;;2.15;1.23;;;;;;;;;;5024044;28;20042;-56
2021/11/04 07:01:21;;;;;;;4.50;1.40;;;;;;;;;;5016398;28;20061;-56
2021/11/04 07:03:56;;;;;;;1.30;1.30;;;;;;;;;;5029869;28;20064;-56
2021/11/04 07:06:25;;;;;;;0.90;0.90;;;;;;;;;;5024439;28;20037;-56
2021/11/04 07:09:02;;;;;;;1.33;1.20;;;;;;;;;;5017214;28;20092;-56
2021/11/04 07:11:33;;;;;;;1.10;1.10;;;;;;;;;;5032051;28;20033;-56
2021/11/04 07:14:00;;;;;;;1.88;1.23;;;;;;;;;;5031976;28;20087;-56
2021/11/04 07:16:28;;;;;;;1.33;1.23;;;;;;;;;;5031705;28;20038;-55
2021/11/04 07:18:56;;;;;;;3.08;1.10;;;;;;;;;;5030175;28;20058;-56
2021/11/04 07:21:42;;;;;;;1.38;1.15;;;;;;;;;;5034231;28;20124;-56
2021/11/04 07:24:11;;;;;;;2.13;1.10;;;;;;;;;;5026604;28;20056;-55
2021/11/04 07:26:39;;;;;;;1.40;1.30;;;;;;;;;;5020247;28;20037;-56
2021/11/04 07:29:06;;;;;;;2.20;1.48;;;;;;;;;;5032713;28;20048;-56
2021/11/04 07:31:34;;;;;;;2.05;1.20;;;;;;;;;;5031863;28;20474;-57
2021/11/04 07:34:04;;;;;;;2.42;1.30;;;;;;;;;;5023763;28;20041;-56
2021/11/04 07:36:35;;;;;;;1.92;1.75;;;;;;;;;;5030377;28;20132;-56
2021/11/04 07:39:06;;;;;;;1.98;1.00;;;;;;;;;;5031510;28;20371;-56
2021/11/04 07:41:34;;;;;;;5.93;1.20;;;;;;;;;;5033697;28;20056;-57
2021/11/04 07:44:01;;;;;;;2.58;1.30;;;;;;;;;;5031184;28;20057;-57
2021/11/04 07:46:29;;;;;;;2.45;1.50;;;;;;;;;;5016015;28;20046;-56
2021/11/04 07:48:56;;;;;;;1.27;1.17;;;;;;;;;;5030078;28;20448;-56
2021/11/04 07:51:22;;;;;;;1.10;1.00;;;;;;;;;;5023656;28;20045;-56
2021/11/04 07:53:49;;;;;;;1.45;1.00;;;;;;;;;;5021300;28;20030;-56
2021/11/04 07:56:16;;;;;;;1.20;1.10;;;;;;;;;;5023232;28;20099;-57
2021/11/04 07:58:43;;;;;;;4.57;1.27;;;;;;;;;;5018370;28;20061;-55
2021/11/04 08:01:09;;;;;;;8.13;2.15;;;;;;;;;;5031023;28;20045;-57
2021/11/04 08:03:36;;;;;;;4.28;1.85;;;;;;;;;;5021796;28;20046;-56
2021/11/04 08:06:03;;;;;;;5.57;1.75;;;;;;;;;;5023621;28;20382;-56
2021/11/04 08:08:30;;;;;;;3.33;1.10;;;;;;;;;;5020724;28;20073;-56
2021/11/04 08:10:57;;;;;;;1.17;1.10;;;;;;;;;;5033037;28;20041;-57
2021/11/04 08:13:24;;;;;;;2.80;1.02;;;;;;;;;;5029945;28;20029;-56
2021/11/04 08:15:51;;;;;;;5.72;2.50;;;;;;;;;;5031700;28;20045;-57
2021/11/04 08:18:18;;;;;;;4.57;1.52;;;;;;;;;;5029031;28;20136;-56
2021/11/04 08:20:45;;;;;;;5.18;1.13;;;;;;;;;;5031392;28;20107;-56
2021/11/04 08:23:13;;;;;;;4.70;1.48;;;;;;;;;;5019900;28;20436;-57
2021/11/04 08:25:41;;;;;;;2.75;1.00;;;;;;;;;;5025381;28;20067;-56
2021/11/04 08:28:09;;;;;;;6.72;1.90;;;;;;;;;;5025577;28;20073;-56
2021/11/04 08:30:36;;;;;;;1.35;1.00;;;;;;;;;;5026643;28;20713;-56
2021/11/04 08:33:03;;;;;;;4.68;1.13;;;;;;;;;;5019161;28;20088;-56
2021/11/04 08:35:29;;;;;;;1.13;1.00;;;;;;;;;;5030986;28;20362;-56
2021/11/04 08:37:56;;;;;;;5.78;1.20;;;;;;;;;;5030227;28;20390;-56
2021/11/04 08:40:23;;;;;;;3.92;1.10;;;;;;;;;;5032724;28;20033;-56
2021/11/04 08:42:51;;;;;;;1.10;1.10;;;;;;;;;;5028063;28;20099;-56
2021/11/04 08:45:17;;;;;;;4.60;1.50;;;;;;;;;;5029822;28;20370;-57
2021/11/04 08:47:44;;;;;;;5.68;1.50;;;;;;;;;;5030259;28;20034;-56
2021/11/04 08:50:12;;;;;;;1.98;1.25;;;;;;;;;;5031489;28;20095;-57
2021/11/04 08:52:39;;;;;;;3.22;1.90;;;;;;;;;;5032143;28;20033;-57
2021/11/04 08:55:07;;;;;;;2.92;2.72;;;;;;;;;;5026268;28;20053;-57
2021/11/04 08:57:37;;;;;;;4.57;4.20;;;;;;;;;;5020213;28;20053;-56
2021/11/04 09:00:06;;;;;;;3.72;3.63;;;;;;;;;;5029340;28;20049;-57
2021/11/04 09:02:33;;;;;;;6.75;5.10;;;;;;;;;;5030361;28;20060;-57
2021/11/04 09:05:02;;;;;;;6.10;5.55;;;;;;;;;;5032246;28;20513;-57
2021/11/04 09:07:29;;;;;;;3.42;2.17;;;;;;;;;;5026564;28;20037;-57
2021/11/04 09:09:56;;;;;;;6.07;5.97;;;;;;;;;;5013493;28;20633;-56
2021/11/04 09:12:23;;;;;;;6.22;6.13;;;;;;;;;;5025519;28;20042;-57
2021/11/04 09:14:50;;;;;;;6.05;5.57;;;;;;;;;;5019722;28;20042;-56
2021/11/04 09:17:18;;;;;;;7.47;6.90;;;;;;;;;;5030817;28;20183;-58
2021/11/04 09:19:45;;;;;;;6.70;6.18;;;;;;;;;;5028703;28;20048;-56
2021/11/04 09:22:12;;;;;;;6.07;5.65;;;;;;;;;;5024660;28;20481;-57
2021/11/04 09:24:40;;;;;;;3.25;3.15;;;;;;;;;;5026546;28;20033;-57
2021/11/04 09:27:06;;;;;;;4.78;4.45;;;;;;;;;;5015995;28;20053;-57
2021/11/04 09:29:34;;;;;;;4.35;4.05;;;;;;;;;;5030734;28;20497;-57
2021/11/04 09:32:01;;;;;;;8.27;7.72;;;;;;;;;;5029191;28;20045;-57
2021/11/04 09:34:48;;;;;;;8.48;7.95;;;;;;;;;;5026218;28;20095;-56
2021/11/04 09:37:17;;;;;;;5.82;5.72;;;;;;;;;;5029447;28;20037;-57
2021/11/04 09:39:44;;;;;;;1.58;1.48;;;;;;;;;;5029657;28;20061;-55
2021/11/04 09:42:11;;;;;;;3.85;3.70;;;;;;;;;;5020375;28;20042;-57
2021/11/04 09:44:38;;;;;;;4.25;1.63;;;;;;;;;;5021725;28;20041;-57
2021/11/04 09:47:04;;;;;;;4.80;4.60;;;;;;;;;;5030513;28;20045;-57
2021/11/04 09:49:31;;;;;;;3.97;3.33;;;;;;;;;;5025801;28;20072;-57
2021/11/04 09:51:58;;;;;;;1.40;1.30;;;;;;;;;;5015816;28;20044;-57
2021/11/04 09:54:24;;;;;;;3.33;1.80;;;;;;;;;;5029143;28;20037;-57
2021/11/04 09:56:51;;;;;;;3.50;1.25;;;;;;;;;;5027447;28;20046;-55
2021/11/04 09:59:18;;;;;;;1.00;1.00;;;;;;;;;;5030827;28;20060;-57
2021/11/04 10:01:46;;;;;;;2.38;2.17;;;;;;;;;;5028817;28;20041;-56
2021/11/04 10:04:13;;;;;;;0.90;0.90;;;;;;;;;;5020341;28;20088;-57
2021/11/04 10:06:40;;;;;;;1.88;1.00;;;;;;;;;;5024744;28;20046;-56
2021/11/04 10:09:09;;;;;;;2.42;0.90;;;;;;;;;;5017239;28;20489;-56
2021/11/04 10:11:39;;;;;;;1.90;1.00;;;;;;;;;;5029592;28;20047;-56
2021/11/04 10:14:14;;;;;;;3.38;1.10;;;;;;;;;;5027597;28;20041;-56
2021/11/04 10:16:44;;;;;;;1.92;1.00;;;;;;;;;;5012263;28;20057;-56
2021/11/04 10:19:18;;;;;;;1.75;1.15;;;;;;;;;;5025514;28;20076;-57
2021/11/04 10:21:44;;;;;;;;;;;;;;;;;;5018421;28;20076;-57
2021/11/04 10:24:16;;;;;;;1.30;1.10;;;;;;;;;;5030386;28;19932;-56
2021/11/04 10:26:43;;;;;;;2.25;1.10;;;;;;;;;;5028781;28;20095;-56
2021/11/04 10:29:11;;;;;;;1.17;1.00;;;;;;;;;;5026469;28;20042;-57
2021/11/04 10:31:41;;;;;;;5.22;1.48;;;;;;;;;;5028287;28;20087;-57
2021/11/04 10:34:13;;;;;;;1.77;0.95;;;;;;;;;;5028349;28;20208;-57
2021/11/04 10:36:42;;;;;;;1.85;0.85;;;;;;;;;;5029891;28;20105;-57
2021/11/04 10:39:09;;;;;;;1.00;0.82;;;;;;;;;;5028097;28;20099;-57
2021/11/04 10:41:40;;;;;;;3.22;0.85;;;;;;;;;;5037962;28;20045;-57
2021/11/04 10:44:09;;;;;;;1.42;0.90;;;;;;;;;;5033945;28;20049;-56
2021/11/04 10:46:44;;;;;;;0.82;0.80;;;;;;;;;;5031378;28;20099;-58
2021/11/04 10:49:11;;;;;;;4.20;0.90;;;;;;;;;;5021533;28;20041;-58
2021/11/04 10:51:38;;;;;;;1.80;0.90;;;;;;;;;;5025824;28;20490;-56
2021/11/04 10:54:07;;;;;;;4.75;1.55;;;;;;;;;;5043047;28;20052;-56
2021/11/04 10:56:35;;;;;;;1.77;0.90;;;;;;;;;;5032436;28;20091;-58
2021/11/04 10:59:05;;;;;;;2.45;1.65;;;;;;;;;;5024961;28;20045;-57
2021/11/04 11:01:33;;;;;;;1.40;1.00;;;;;;;;;;5025562;28;20120;-58
2021/11/04 11:04:03;;;;;;;2.47;0.80;;;;;;;;;;5032476;28;20037;-57
2021/11/04 11:06:35;;;;;;;2.25;0.90;;;;;;;;;;5039613;28;20103;-56
2021/11/04 11:09:05;;;;;;;2.13;1.08;;;;;;;;;;5031805;28;20041;-57
2021/11/04 11:11:35;;;;;;;1.85;1.73;;;;;;;;;;5029560;28;20041;-58
2021/11/04 11:14:03;;;;;;;7.25;1.60;;;;;;;;;;5037102;28;20037;-58
2021/11/04 11:16:30;;;;;;;0.90;0.90;;;;;;;;;;5037725;28;20053;-57
2021/11/04 11:18:58;;;;;;;1.02;0.98;;;;;;;;;;5033922;28;20056;-58
2021/11/04 11:21:28;;;;;;;3.63;1.30;;;;;;;;;;5036840;28;20440;-57
2021/11/04 11:23:57;;;;;;;1.52;0.90;;;;;;;;;;5023593;28;20053;-56
2021/11/04 11:26:24;;;;;;;2.47;1.15;;;;;;;;;;5034883;28;20064;-57
2021/11/04 11:28:54;;;;;;;4.63;0.85;;;;;;;;;;5041710;28;20087;-57
2021/11/04 11:31:22;;;;;;;0.93;0.70;;;;;;;;;;5023313;28;20045;-58
2021/11/04 11:34:10;;;;;;;3.03;1.17;;;;;;;;;;5024782;28;20033;-57
2021/11/04 11:36:39;;;;;;;0.98;0.90;;;;;;;;;;5025917;28;20041;-57
2021/11/04 11:39:11;;;;;;;0.80;0.80;;;;;;;;;;5027660;28;20046;-57
2021/11/04 11:41:53;;;;;;;3.42;1.00;;;;;;;;;;5028271;28;20391;-57
2021/11/04 11:44:46;;;;;;;1.13;0.80;;;;;;;;;;5029843;28;20049;-53
2021/11/04 11:47:17;;;;;;;1.33;0.80;;;;;;;;;;5029950;28;20069;-57
2021/11/04 11:49:45;;;;;;;0.88;0.75;;;;;;;;;;5042241;28;20290;-58
2021/11/04 11:52:31;;;;;;;1.63;0.80;;;;;;;;;;5025321;28;20037;-57
2021/11/04 11:55:04;;;;;;;1.88;0.90;;;;;;;;;;5026498;28;20045;-58
2021/11/04 11:57:31;;;;;;;2.70;0.80;;;;;;;;;;5037553;28;20460;-58
2021/11/04 11:59:58;;;;;;;1.45;0.80;;;;;;;;;;5028691;28;20053;-58
2021/11/04 12:02:34;;;;;;;4.53;0.95;;;;;;;;;;5018707;28;20116;-58
2021/11/04 12:05:19;;;;;;;2.90;0.80;;;;;;;;;;5026238;28;20050;-57
2021/11/04 12:08:15;;;;;;;3.45;0.90;;;;;;;;;;5024435;28;20111;-58
2021/11/04 12:10:43;;;;;;;4.07;0.90;;;;;;;;;;5015404;28;20029;-58
2021/11/04 12:13:30;;;;;;;4.82;0.90;;;;;;;;;;5031514;28;20108;-57
2021/11/04 12:16:12;;;;;;;0.88;0.80;;;;;;;;;;5030811;28;20485;-57
2021/11/04 12:18:56;;;;;;;1.10;0.70;;;;;;;;;;5023423;28;20048;-58
2021/11/04 12:21:25;;;;;;;3.72;0.80;;;;;;;;;;5029160;28;20084;-57
2021/11/04 12:23:53;;;;;;;1.92;0.90;;;;;;;;;;5029562;28;20040;-57
2021/11/04 12:26:27;;;;;;;2.75;0.80;;;;;;;;;;5032759;28;20075;-59
2021/11/04 12:28:54;;;;;;;0.70;0.70;;;;;;;;;;5027712;28;20045;-57
2021/11/04 12:31:22;;;;;;;1.15;0.85;;;;;;;;;;5015016;28;20042;-58
2021/11/04 12:33:49;;;;;;;1.13;0.80;;;;;;;;;;5024519;28;20046;-56
2021/11/04 12:36:31;;;;;;;3.45;0.90;;;;;;;;;;5022718;28;20064;-59
2021/11/04 12:38:59;;;;;;;0.95;0.80;;;;;;;;;;5031354;28;20378;-55
2021/11/04 12:41:27;;;;;;;1.65;0.80;;;;;;;;;;5029318;28;20048;-56
2021/11/04 12:44:05;;;;;;;0.85;0.75;;;;;;;;;;5029214;28;20519;-54
2021/11/04 12:46:33;;;;;;;3.53;0.90;;;;;;;;;;5030794;28;20116;-55
2021/11/04 12:49:06;;;;;;;2.17;1.02;;;;;;;;;;5026873;28;20046;-54
2021/11/04 12:51:53;;;;;;;2.97;0.90;;;;;;;;;;5019216;28;20378;-55
2021/11/04 12:54:30;;;;;;;1.48;0.80;;;;;;;;;;5029116;28;20041;-53
2021/11/04 12:56:59;;;;;;;0.80;0.80;;;;;;;;;;5021596;28;20060;-55
2021/11/04 12:59:44;;;;;;;0.70;0.70;;;;;;;;;;5031653;28;20483;-54
2021/11/04 13:02:13;;;;;;;3.70;0.90;;;;;;;;;;5030017;28;20049;-54
2021/11/04 13:04:47;;;;;;;1.80;0.90;;;;;;;;;;5031365;28;20144;-54
2021/11/04 13:07:14;;;;;;;2.05;0.80;;;;;;;;;;5028311;28;20084;-55
2021/11/04 13:09:44;;;;;;;3.50;1.30;;;;;;;;;;5024278;28;20478;-55
2021/11/04 13:12:12;;;;;;;0.70;0.70;;;;;;;;;;5024123;28;20054;-55
2021/11/04 13:14:54;;;;;;;0.80;0.80;;;;;;;;;;5023300;28;20033;-54
2021/11/04 13:17:22;;;;;;;0.88;0.88;;;;;;;;;;5039141;28;20033;-55
2021/11/04 13:19:59;;;;;;;0.82;0.80;;;;;;;;;;5031823;28;20637;-54
2021/11/04 13:22:26;;;;;;;1.73;1.00;;;;;;;;;;5026525;28;20049;-55
2021/11/04 13:24:58;;;;;;;0.90;0.90;;;;;;;;;;5018142;28;20413;-57
2021/11/04 13:27:28;;;;;;;2.20;2.13;;;;;;;;;;5025261;28;20065;-55
2021/11/04 13:29:56;;;;;;;2.47;2.28;;;;;;;;;;5030882;28;20042;-55
2021/11/04 13:32:47;;;;;;;3.38;2.47;;;;;;;;;;5029354;28;20115;-57
2021/11/04 13:35:35;;;;;;;5.60;5.43;;;;;;;;;;5029243;28;20049;-55
2021/11/04 13:38:04;;;;;;;6.93;6.82;;;;;;;;;;5020521;28;20498;-55
2021/11/04 13:40:37;;;;;;;5.55;5.35;;;;;;;;;;5030445;28;20470;-55
2021/11/04 13:43:04;;;;;;;2.15;2.05;;;;;;;;;;5025235;28;20053;-56
2021/11/04 13:45:31;;;;;;;5.03;4.82;;;;;;;;;;5033898;28;20080;-58
2021/11/04 13:48:00;;;;;;;8.73;8.25;;;;;;;;;;5029526;28;20046;-60
2021/11/04 13:50:35;;;;;;;6.47;6.28;;;;;;;;;;5021768;28;20091;-57
2021/11/04 13:53:11;;;;;;;5.80;5.63;;;;;;;;;;5023640;28;20041;-51
2021/11/04 13:55:38;;;;;;;5.45;5.25;;;;;;;;;;5023330;28;20127;-57
2021/11/04 13:58:10;;;;;;;4.90;4.80;;;;;;;;;;5037018;28;20487;-55
2021/11/04 14:00:37;;;;;;;6.30;6.07;;;;;;;;;;5036519;28;20107;-56
2021/11/04 14:03:05;;;;;;;6.15;5.68;;;;;;;;;;5024336;28;20098;-58
2021/11/04 14:05:50;;;;;;;6.15;5.95;;;;;;;;;;5027628;28;20049;-56
2021/11/04 14:08:17;;;;;;;6.22;6.13;;;;;;;;;;5027438;28;20068;-57
2021/11/04 14:10:44;;;;;;;7.25;6.80;;;;;;;;;;5018700;28;20414;-58
2021/11/04 14:13:11;;;;;;;6.95;6.60;;;;;;;;;;5021119;28;20473;-57
2021/11/04 14:15:41;;;;;;;5.85;5.55;;;;;;;;;;5028863;28;20092;-57
2021/11/04 14:18:18;;;;;;;5.97;5.63;;;;;;;;;;5025986;28;20049;-58
2021/11/04 14:20:46;;;;;;;3.28;3.17;;;;;;;;;;5017360;28;20033;-57
2021/11/04 14:23:14;;;;;;;69.85;44.92;;;;;;;;;;5029186;28;20045;-57
2021/11/04 14:25:42;;;;;;;3.15;3.05;;;;;;;;;;5025585;28;20730;-57
2021/11/04 14:28:09;;;;;;;4.35;4.15;;;;;;;;;;5029030;28;20045;-54
2021/11/04 14:30:42;;;;;;;5.03;4.60;;;;;;;;;;5029825;28;20481;-57
2021/11/04 14:33:10;;;;;;;3.60;1.92;;;;;;;;;;5018937;28;20091;-55
2021/11/04 14:35:37;;;;;;;7.82;7.30;;;;;;;;;;5019111;28;20042;-57
2021/11/04 14:38:05;;;;;;;5.55;5.45;;;;;;;;;;5021914;28;20033;-57
2021/11/04 14:40:32;;;;;;;8.93;8.10;;;;;;;;;;5029324;28;20096;-56
2021/11/04 14:42:58;;;;;;;7.35;6.95;;;;;;;;;;5027020;28;20046;-59
2021/11/04 14:45:25;;;;;;;9.63;8.98;;;;;;;;;;5021389;28;20075;-58